createdAt,value
2016-01-18T06:01:56.410Z,45.28
2016-01-18T06:02:56.163Z,44.8
2016-01-18T06:03:56.430Z,45.18
2016-01-18T06:04:56.340Z,45
2016-01-18T06:05:56.482Z,45
2016-01-18T06:06:56.314Z,44.7
2016-01-18T06:07:56.504Z,44.13
2016-01-18T06:08:56.507Z,44.44
2016-01-18T06:09:56.821Z,44.06
2016-01-18T06:10:56.699Z,43.96
2016-01-18T06:11:56.749Z,44.06
2016-01-18T06:12:56.642Z,43.77
2016-01-18T06:13:56.832Z,44.06
2016-01-18T06:14:56.835Z,43.96
2016-01-18T06:15:56.697Z,44.06
2016-01-18T06:17:43.218Z,43.48
2016-01-18T06:18:43.065Z,43.87
2016-01-18T06:19:43.348Z,43.7
2016-01-18T06:20:43.398Z,43.87
2016-01-18T06:21:43.401Z,43.67
2016-01-18T06:22:43.279Z,43.4
2016-01-18T06:23:43.281Z,43.57
2016-01-18T06:24:43.315Z,43.98
2016-01-18T06:25:43.317Z,43.88
2016-01-18T06:26:43.383Z,43.79
2016-01-18T06:27:43.402Z,43.7
2016-01-18T06:28:43.436Z,43.5
2016-01-18T06:29:43.500Z,43.98
2016-01-18T06:30:43.519Z,43.79
2016-01-18T06:31:43.569Z,43.4
2016-01-18T06:32:43.603Z,42.93
2016-01-18T06:33:43.730Z,43.4
2016-01-18T06:34:43.671Z,43.21
2016-01-18T06:35:43.720Z,43.21
2016-01-18T06:36:43.785Z,43.31
2016-01-18T06:37:43.850Z,43.21
2016-01-18T06:38:43.838Z,43.02
2016-01-18T06:39:43.888Z,43.02
2016-01-18T06:40:43.905Z,43.21
2016-01-18T06:41:43.970Z,43.12
2016-01-18T06:42:43.989Z,43.12
2016-01-18T06:43:44.054Z,43.12
2016-01-18T06:44:44.557Z,43.21
2016-01-18T06:45:44.121Z,43.31
2016-01-18T06:46:44.171Z,43.21
2016-01-18T06:47:44.206Z,43.31
2016-01-18T06:48:44.255Z,43.21
2016-01-18T06:49:44.289Z,43.4
2016-01-18T06:50:44.339Z,43.21
2016-01-18T06:51:44.356Z,43.4
2016-01-18T06:52:44.391Z,43.21
2016-01-18T06:53:44.425Z,43.21
2016-01-18T06:54:44.490Z,43.02
2016-01-18T06:55:44.570Z,42.85
2016-01-18T06:56:44.573Z,43.02
2016-01-18T06:57:44.623Z,42.83
2016-01-18T06:58:44.641Z,43.12
2016-01-18T06:59:44.722Z,42.93
2016-01-18T07:00:44.725Z,43.12
2016-01-18T07:01:44.790Z,43.21
2016-01-18T07:02:44.808Z,43.21
2016-01-18T07:03:44.842Z,43.21
2016-01-18T07:04:44.922Z,43.23
2016-01-18T07:05:44.942Z,43.21
2016-01-18T07:06:44.991Z,42.93
2016-01-18T07:07:45.025Z,43.02
2016-01-18T07:08:45.058Z,43.04
2016-01-18T07:09:45.125Z,43.21
2016-01-18T07:10:45.142Z,43.14
2016-01-18T07:11:45.271Z,43.31
2016-01-18T07:12:45.304Z,43.14
2016-01-18T07:13:45.290Z,43.5
2016-01-18T07:14:45.325Z,43.02
2016-01-18T07:15:45.327Z,43.04
2016-01-18T07:16:45.409Z,43.12
2016-01-18T07:17:45.412Z,42.94
2016-01-18T07:18:45.507Z,43.31
2016-01-18T07:19:45.495Z,43.23
2016-01-18T07:20:45.559Z,43.33
2016-01-18T07:21:45.562Z,43.6
2016-01-18T07:22:45.643Z,43.88
2016-01-18T07:23:45.709Z,43.98
2016-01-18T07:24:45.696Z,43.88
2016-01-18T07:25:45.729Z,43.88
2016-01-18T07:26:45.795Z,43.7
2016-01-18T07:27:45.813Z,43.7
2016-01-18T07:28:45.848Z,43.79
2016-01-18T07:29:45.959Z,43.7
2016-01-18T07:30:45.961Z,44.08
2016-01-18T07:31:45.981Z,44.08
2016-01-18T07:32:45.998Z,44.08
2016-01-18T07:33:46.048Z,43.88
2016-01-18T07:34:46.082Z,44.08
2016-01-18T07:35:46.131Z,44.17
2016-01-18T07:36:46.166Z,44.08
2016-01-18T07:37:46.215Z,43.88
2016-01-18T07:38:46.233Z,43.88
2016-01-18T07:39:46.283Z,43.98
2016-01-18T07:40:46.317Z,43.98
2016-01-18T07:41:46.398Z,43.98
2016-01-18T07:42:46.432Z,43.79
2016-01-18T07:43:46.482Z,44.08
2016-01-18T07:44:46.500Z,44.08
2016-01-18T07:45:46.533Z,43.98
2016-01-18T07:46:46.582Z,44.24
2016-01-18T07:47:46.632Z,44.08
2016-01-18T07:48:46.651Z,44.17
2016-01-18T07:49:46.685Z,44.08
2016-01-18T07:50:46.718Z,44.37
2016-01-18T07:51:46.768Z,44.17
2016-01-18T07:52:46.848Z,44.15
2016-01-18T07:53:46.851Z,44.27
2016-01-18T07:54:46.902Z,43.98
2016-01-18T07:55:46.935Z,43.98
2016-01-18T07:56:46.969Z,43.98
2016-01-18T07:57:47.003Z,44.17
2016-01-18T07:58:47.037Z,43.88
2016-01-18T07:59:47.071Z,44.15
2016-01-18T08:00:47.121Z,44.17
2016-01-18T08:01:47.170Z,43.98
2016-01-18T08:02:47.235Z,44.08
2016-01-18T08:03:47.254Z,44.08
2016-01-18T08:04:47.288Z,43.88
2016-01-18T08:05:47.353Z,44.17
2016-01-18T08:06:47.355Z,43.88
2016-01-18T08:07:47.436Z,43.98
2016-01-18T08:08:47.439Z,43.98
2016-01-18T08:09:47.504Z,43.98
2016-01-18T08:10:47.522Z,44.08
2016-01-18T08:11:47.557Z,43.7
2016-01-18T08:12:47.605Z,44.08
2016-01-18T08:13:47.640Z,44.27
2016-01-18T08:14:47.690Z,43.5
2016-01-18T08:15:47.755Z,43.4
2016-01-18T08:16:47.805Z,43.4
2016-01-18T08:17:47.807Z,43.88
2016-01-18T08:18:47.857Z,43.98
2016-01-18T08:19:47.891Z,43.31
2016-01-18T08:20:47.956Z,43.12
2016-01-18T08:21:47.959Z,43.88
2016-01-18T08:22:47.993Z,43.4
2016-01-18T08:23:48.057Z,43.31
2016-01-18T08:24:48.076Z,43.02
2016-01-18T08:25:48.141Z,43.02
2016-01-18T08:26:48.160Z,43.31
2016-01-18T08:27:48.227Z,43.4
2016-01-18T08:28:48.243Z,43.7
2016-01-18T08:29:48.357Z,43.79
2016-01-18T08:30:48.312Z,43.88
2016-01-18T08:31:48.362Z,43.79
2016-01-18T08:32:48.411Z,43.7
2016-01-18T08:33:48.477Z,44.27
2016-01-18T08:34:48.479Z,43.31
2016-01-18T08:35:48.529Z,44.17
2016-01-18T08:36:48.829Z,44.08
2016-01-18T08:37:48.628Z,44.17
2016-01-18T08:38:48.677Z,43.98
2016-01-18T08:39:48.695Z,44.08
2016-01-18T08:40:48.729Z,44.17
2016-01-18T08:41:48.764Z,44.08
2016-01-18T08:42:48.840Z,43.98
2016-01-18T08:43:48.813Z,43.98
2016-01-18T08:44:48.881Z,43.98
2016-01-18T08:45:48.886Z,44.08
2016-01-18T08:46:48.890Z,44.1
2016-01-18T08:47:48.976Z,43.98
2016-01-18T08:48:48.974Z,44.17
2016-01-18T08:49:49.019Z,44.2
2016-01-18T08:50:49.063Z,43.98
2016-01-18T08:51:49.108Z,44.37
2016-01-18T08:52:49.138Z,44.29
2016-01-18T08:53:49.186Z,44.46
2016-01-18T08:54:49.219Z,44.37
2016-01-18T08:55:49.235Z,44.37
2016-01-18T08:56:49.252Z,44.65
2016-01-18T08:57:49.300Z,44.84
2016-01-18T08:58:49.334Z,44.84
2016-01-18T08:59:49.366Z,44.84
2016-01-18T09:00:49.430Z,44.94
2016-01-18T09:01:49.464Z,44.65
2016-01-18T09:02:49.498Z,45.14
2016-01-18T09:03:49.547Z,45.32
2016-01-18T09:04:49.596Z,45.32
2016-01-18T09:05:49.645Z,44.75
2016-01-18T09:06:49.710Z,45.14
2016-01-18T09:07:49.713Z,44.94
2016-01-18T09:08:49.746Z,44.37
2016-01-18T09:09:49.779Z,44.65
2016-01-18T09:10:49.814Z,44.75
2016-01-18T09:11:49.848Z,44.27
2016-01-18T09:12:49.882Z,44.17
2016-01-18T09:13:49.932Z,44.56
2016-01-18T09:14:49.965Z,44.46
2016-01-18T09:15:52.109Z,43.79
2016-01-18T09:16:50.049Z,44.08
2016-01-18T09:17:50.068Z,44.46
2016-01-18T09:18:50.134Z,43.7
2016-01-18T09:19:50.168Z,43.88
2016-01-18T09:20:50.202Z,43.98
2016-01-18T09:21:50.235Z,43.6
2016-01-18T09:22:50.285Z,43.31
2016-01-18T09:23:50.319Z,43.21
2016-01-18T09:24:50.368Z,43.88
2016-01-18T09:25:50.403Z,43.4
2016-01-18T09:26:50.420Z,43.79
2016-01-18T09:27:50.501Z,43.79
2016-01-18T09:28:50.536Z,43.88
2016-01-18T09:29:50.554Z,43.31
2016-01-18T09:30:50.681Z,43.5
2016-01-18T09:31:50.637Z,43.21
2016-01-18T09:32:50.703Z,43.31
2016-01-18T09:33:50.736Z,43.21
2016-01-18T09:34:50.770Z,43.21
2016-01-18T09:35:50.835Z,42.35
2016-01-18T09:36:50.870Z,42.44
2016-01-18T09:37:50.888Z,42.35
2016-01-18T09:38:50.938Z,41.58
2016-01-18T09:39:50.986Z,41.96
2016-01-18T09:40:51.052Z,41.58
2016-01-18T09:41:51.070Z,41.77
2016-01-18T09:42:51.089Z,41.58
2016-01-18T09:43:51.154Z,41.58
2016-01-18T09:44:51.204Z,40.91
2016-01-18T09:45:51.207Z,41.39
2016-01-18T09:46:51.677Z,41
2016-01-18T09:48:05.696Z,41.12
2016-01-18T09:48:51.324Z,41.49
2016-01-18T09:49:51.357Z,41.41
2016-01-18T09:50:51.408Z,41.58
2016-01-18T09:51:51.440Z,41.29
2016-01-18T09:52:51.490Z,41.31
2016-01-18T09:53:51.524Z,41.31
2016-01-18T09:54:51.574Z,41.41
2016-01-18T09:55:51.593Z,41.58
2016-01-18T09:56:51.657Z,41.49
2016-01-18T09:57:51.692Z,41.5
2016-01-18T09:58:52.429Z,41.58
2016-01-18T09:59:51.773Z,41.31
2016-01-18T10:00:51.790Z,41.58
2016-01-18T10:01:51.840Z,41.49
2016-01-18T10:02:51.884Z,41.49
2016-01-18T10:04:06.846Z,41.49
2016-01-18T10:04:52.206Z,41.89
2016-01-18T10:05:52.927Z,41.67
2016-01-18T10:06:52.414Z,42.47
2016-01-18T10:07:52.683Z,42.73
2016-01-18T10:08:53.106Z,41.77
2016-01-18T10:09:53.031Z,41.87
2016-01-18T10:10:52.972Z,42.44
2016-01-18T10:11:52.974Z,42.64
2016-01-18T10:12:53.055Z,42.54
2016-01-18T10:13:53.261Z,42.06
2016-01-18T10:14:54.077Z,42.35
2016-01-18T10:15:53.001Z,42.35
2016-01-18T10:16:53.863Z,42.06
2016-01-18T10:17:54.194Z,42.44
2016-01-18T10:18:53.805Z,42.64
2016-01-18T10:19:53.169Z,42.54
2016-01-18T10:20:54.671Z,42.64
2016-01-18T10:21:52.611Z,42.54
2016-01-18T10:22:52.660Z,42.44
2016-01-18T10:23:52.711Z,42.54
2016-01-18T10:24:52.760Z,42.54
2016-01-18T10:25:52.794Z,42.54
2016-01-18T10:26:52.827Z,42.44
2016-01-18T10:27:52.861Z,42.06
2016-01-18T10:28:52.911Z,42.16
2016-01-18T10:29:52.993Z,42.44
2016-01-18T10:30:53.182Z,42.54
2016-01-18T10:31:53.372Z,42.35
2016-01-18T10:32:53.062Z,42.35
2016-01-18T10:33:53.112Z,42.25
2016-01-18T10:34:53.131Z,42.54
2016-01-18T10:35:53.539Z,42.35
2016-01-18T10:36:53.214Z,42.16
2016-01-18T10:37:53.263Z,42.54
2016-01-18T10:38:53.297Z,42.64
2016-01-18T10:39:53.347Z,42.35
2016-01-18T10:40:53.381Z,42.06
2016-01-18T10:41:53.445Z,42.54
2016-01-18T10:42:53.480Z,42.37
2016-01-18T10:43:53.530Z,42.35
2016-01-18T10:44:55.283Z,42.08
2016-01-18T10:45:54.003Z,42.06
2016-01-18T10:46:53.647Z,42.47
2016-01-18T10:47:53.744Z,42.56
2016-01-18T10:48:53.714Z,42.37
2016-01-18T10:49:54.374Z,42.27
2016-01-18T10:51:11.892Z,42.27
2016-01-18T10:51:54.927Z,42.37
2016-01-18T10:52:54.554Z,42.56
2016-01-18T10:53:54.478Z,42.08
2016-01-18T10:54:54.262Z,42.18
2016-01-18T10:55:54.000Z,42.18
2016-01-18T10:56:54.049Z,42.85
2016-01-18T10:57:54.082Z,42.85
2016-01-18T10:58:54.101Z,42.94
2016-01-18T10:59:54.150Z,42.85
2016-01-18T11:00:54.232Z,42.76
2016-01-18T11:01:54.281Z,42.85
2016-01-18T11:02:54.299Z,42.66
2016-01-18T11:03:54.317Z,42.66
2016-01-18T11:04:54.476Z,42.66
2016-01-18T11:05:54.385Z,42.94
2016-01-18T11:06:54.451Z,43.04
2016-01-18T11:07:54.453Z,42.85
2016-01-18T11:08:54.518Z,42.94
2016-01-18T11:09:54.537Z,43.23
2016-01-18T11:10:54.587Z,43.23
2016-01-18T11:11:54.683Z,43.14
2016-01-18T11:12:54.686Z,43.43
2016-01-18T11:13:54.720Z,43.81
2016-01-18T11:14:54.784Z,43.81
2016-01-18T11:15:54.787Z,43.79
2016-01-18T11:16:54.821Z,44
2016-01-18T11:17:54.872Z,43.5
2016-01-18T11:18:54.920Z,43.88
2016-01-18T11:19:54.955Z,43.88
2016-01-18T11:20:54.988Z,43.7
2016-01-18T11:21:55.022Z,43.4
2016-01-18T11:22:55.088Z,43.98
2016-01-18T11:23:55.106Z,43.88
2016-01-18T11:24:55.202Z,43.98
2016-01-18T11:25:55.205Z,44.17
2016-01-18T11:26:55.223Z,43.98
2016-01-18T11:27:55.289Z,44.08
2016-01-18T11:28:55.307Z,44.1
2016-01-18T11:29:55.356Z,44.48
2016-01-18T11:30:55.374Z,44.2
2016-01-18T11:31:55.424Z,44.58
2016-01-18T11:32:55.474Z,44.48
2016-01-18T11:33:55.539Z,44.84
2016-01-18T11:34:55.542Z,44.75
2016-01-18T11:35:55.623Z,44.37
2016-01-18T11:36:55.657Z,44.27
2016-01-18T11:37:55.690Z,44.27
2016-01-18T11:38:55.709Z,44.08
2016-01-18T11:39:55.759Z,44.37
2016-01-18T11:40:55.855Z,44.46
2016-01-18T11:41:55.826Z,44.46
2016-01-18T11:42:55.876Z,44.08
2016-01-18T11:43:56.081Z,44.37
2016-01-18T11:44:55.975Z,43.98
2016-01-18T11:45:55.978Z,44.17
2016-01-18T11:46:56.028Z,44.17
2016-01-18T11:47:56.077Z,44.58
2016-01-18T11:48:56.110Z,44.58
2016-01-18T11:49:56.145Z,44.38
2016-01-18T11:50:56.319Z,44.48
2016-01-18T11:51:56.291Z,44.48
2016-01-18T11:52:56.293Z,44.1
2016-01-18T11:53:56.311Z,44.48
2016-01-18T11:54:58.002Z,44.87
2016-01-18T11:55:56.489Z,44.48
2016-01-18T11:56:56.476Z,44.29
2016-01-18T11:57:56.494Z,44.1
2016-01-18T11:58:56.700Z,44.2
2016-01-18T11:59:56.827Z,44.77
2016-01-18T12:01:07.658Z,45.06
2016-01-18T12:01:57.177Z,44.48
2016-01-18T12:02:56.664Z,44.96
2016-01-18T12:03:56.713Z,44.58
2016-01-18T12:04:56.748Z,44.48
2016-01-18T12:05:56.890Z,44.29
2016-01-18T12:06:56.879Z,44.38
2016-01-18T12:07:56.865Z,44.1
2016-01-18T12:08:56.962Z,44.48
2016-01-18T12:09:56.964Z,44.29
2016-01-18T12:10:57.013Z,44.29
2016-01-18T12:11:57.032Z,44.29
2016-01-18T12:12:57.082Z,44.1
2016-01-18T12:13:57.100Z,44.29
2016-01-18T12:14:57.133Z,44.38
2016-01-18T12:15:57.214Z,44.68
2016-01-18T12:16:57.265Z,44.48
2016-01-18T12:17:57.283Z,44.68
2016-01-18T12:18:57.300Z,44.68
2016-01-18T12:19:57.350Z,44.29
2016-01-18T12:20:57.416Z,44.29
2016-01-18T12:21:57.419Z,44.48
2016-01-18T12:22:57.467Z,44.2
2016-01-18T12:23:57.517Z,44.38
2016-01-18T12:24:57.598Z,44.2
2016-01-18T12:25:57.585Z,44.29
2016-01-18T12:26:57.635Z,44.58
2016-01-18T12:27:57.685Z,44.38
2016-01-18T12:28:57.703Z,44.29
2016-01-18T12:29:57.768Z,44.29
2016-01-18T12:30:57.786Z,44.58
2016-01-18T12:31:57.851Z,44.58
2016-01-18T12:32:57.869Z,44.48
2016-01-18T12:33:57.919Z,44.87
2016-01-18T12:34:57.954Z,44.48
2016-01-18T12:35:58.002Z,44.68
2016-01-18T12:36:58.021Z,44.29
2016-01-18T12:37:58.117Z,44.29
2016-01-18T12:38:58.121Z,44.29
2016-01-18T12:39:58.185Z,44.29
2016-01-18T12:40:58.172Z,44.1
2016-01-18T12:41:58.238Z,44.1
2016-01-18T12:42:58.256Z,44.1
2016-01-18T12:43:58.353Z,44.1
2016-01-18T12:44:58.355Z,43.91
2016-01-18T12:45:58.389Z,43.81
2016-01-18T12:46:58.422Z,43.81
2016-01-18T12:47:58.488Z,43.81
2016-01-18T12:48:58.506Z,43.81
2016-01-18T12:49:58.555Z,43.91
2016-01-18T12:50:58.605Z,44.2
2016-01-18T12:51:58.624Z,44
2016-01-18T12:52:58.689Z,44
2016-01-18T12:53:58.708Z,43.43
2016-01-18T12:54:58.772Z,43.81
2016-01-18T12:55:58.791Z,43.84
2016-01-18T12:56:58.841Z,43.35
2016-01-18T12:57:58.859Z,43.35
2016-01-18T12:58:58.893Z,43.16
2016-01-18T12:59:58.941Z,42.97
2016-01-18T13:00:59.164Z,42.77
2016-01-18T13:01:59.026Z,42
2016-01-18T13:03:02.263Z,40.68
2016-01-18T13:03:59.124Z,38.99
2016-01-18T13:04:59.143Z,38.04
2016-01-18T13:05:59.193Z,37.29
2016-01-18T13:06:59.227Z,35.85
2016-01-18T13:07:59.292Z,35.02
2016-01-18T13:08:59.326Z,34.74
2016-01-18T13:09:59.359Z,35.69
2016-01-18T13:10:59.410Z,36.63
2016-01-18T13:11:59.443Z,38.06
2016-01-18T13:12:59.477Z,39.01
2016-01-18T13:13:59.526Z,40.14
2016-01-18T13:14:59.561Z,40.89
2016-01-18T13:15:59.595Z,41.74
2016-01-18T13:16:59.628Z,41.64
2016-01-18T13:17:59.678Z,41.83
2016-01-18T13:18:59.572Z,42.5
2016-01-18T13:19:59.761Z,42.89
2016-01-18T13:20:59.811Z,42.12
2016-01-18T13:21:59.861Z,42.87
2016-01-18T13:22:59.878Z,42.77
2016-01-18T13:23:59.945Z,42.68
2016-01-18T13:24:59.963Z,42.77
2016-01-18T13:25:59.997Z,42.87
2016-01-18T13:27:00.047Z,43.26
2016-01-18T13:28:00.080Z,43.64
2016-01-18T13:29:00.114Z,44.02
2016-01-18T13:30:00.163Z,43.93
2016-01-18T13:31:00.214Z,43.93
2016-01-18T13:32:00.247Z,43.93
2016-01-18T13:33:00.296Z,43.93
2016-01-18T13:34:00.330Z,43.81
2016-01-18T13:35:00.365Z,43.52
2016-01-18T13:36:00.399Z,43.81
2016-01-18T13:37:00.449Z,44.1
2016-01-18T13:38:00.482Z,44.1
2016-01-18T13:39:00.531Z,44.2
2016-01-18T13:40:00.566Z,44.2
2016-01-18T13:41:00.615Z,44.2
2016-01-18T13:42:00.634Z,44.2
2016-01-18T13:43:00.683Z,44
2016-01-18T13:44:00.764Z,44.1
2016-01-18T13:45:00.782Z,44.2
2016-01-18T13:46:00.815Z,44.29
2016-01-18T13:47:00.850Z,44.48
2016-01-18T13:48:00.884Z,44.1
2016-01-18T13:49:00.934Z,44
2016-01-18T13:50:00.967Z,44.1
2016-01-18T13:51:01.017Z,41.41
2016-01-18T13:52:01.051Z,39.76
2016-01-18T13:53:01.085Z,38.01
2016-01-18T13:54:01.119Z,36.86
2016-01-18T13:55:01.169Z,36.65
2016-01-18T13:56:01.217Z,36.91
2016-01-18T13:57:01.252Z,36.05
2016-01-18T13:58:01.270Z,33.56
2016-01-18T13:59:01.320Z,32.29
2016-01-18T14:00:01.369Z,32.18
2016-01-18T14:01:01.403Z,32.76
2016-01-18T14:02:01.438Z,33.32
2016-01-18T14:03:01.471Z,32.95
2016-01-18T14:04:01.505Z,32.76
2016-01-18T14:05:01.538Z,31.71
2016-01-18T14:06:01.588Z,30.84
2016-01-18T14:07:01.623Z,31.61
2016-01-18T14:08:01.672Z,31.04
2016-01-18T14:09:01.707Z,30.83
2016-01-18T14:10:01.740Z,30.64
2016-01-18T14:11:01.773Z,30.83
2016-01-18T14:12:01.824Z,29.97
2016-01-18T14:13:01.857Z,29.58
2016-01-18T14:14:01.876Z,29.58
2016-01-18T14:15:01.925Z,29.58
2016-01-18T14:16:01.975Z,31.48
2016-01-18T14:17:02.009Z,33.12
2016-01-18T14:18:02.043Z,33.33
2016-01-18T14:19:02.077Z,32.97
2016-01-18T14:20:02.111Z,32.78
2016-01-18T14:21:02.145Z,33.27
2016-01-18T14:22:02.195Z,33.27
2016-01-18T14:23:02.228Z,34.23
2016-01-18T14:24:02.262Z,33.75
2016-01-18T14:25:02.312Z,33.86
2016-01-18T14:26:02.345Z,34.06
2016-01-18T14:27:02.380Z,34.44
2016-01-18T14:28:02.413Z,34.44
2016-01-18T14:29:02.447Z,35.21
2016-01-18T14:30:02.513Z,35.21
2016-01-18T14:31:02.547Z,35.3
2016-01-18T14:32:02.565Z,35.78
2016-01-18T14:33:02.614Z,36.07
2016-01-18T14:34:02.649Z,36.55
2016-01-18T14:35:02.697Z,35.97
2016-01-18T14:36:02.732Z,36.26
2016-01-18T14:37:02.782Z,36.46
2016-01-18T14:38:02.816Z,36.93
2016-01-18T14:39:02.865Z,37.03
2016-01-18T14:40:02.883Z,37.13
2016-01-18T14:41:02.918Z,37.51
2016-01-18T14:42:02.983Z,37.6
2016-01-18T14:43:03.001Z,37.7
2016-01-18T14:44:03.034Z,37.89
2016-01-18T14:45:03.084Z,38.28
2016-01-18T14:46:03.135Z,38.76
2016-01-18T14:47:03.230Z,38.47
2016-01-18T14:48:03.201Z,39.04
2016-01-18T14:49:03.235Z,38.95
2016-01-18T14:50:03.285Z,39.23
2016-01-18T14:51:03.320Z,39.81
2016-01-18T14:52:03.353Z,39.81
2016-01-18T14:53:03.387Z,40.48
2016-01-18T14:54:03.436Z,40.39
2016-01-18T14:55:03.471Z,40.77
2016-01-18T14:56:03.504Z,41.54
2016-01-18T14:57:03.539Z,41.63
2016-01-18T14:58:03.588Z,41.35
2016-01-18T14:59:03.637Z,41.16
2016-01-18T15:00:03.656Z,41.54
2016-01-18T15:01:03.705Z,41.83
2016-01-18T15:02:03.739Z,41.44
2016-01-18T15:03:03.773Z,41.44
2016-01-18T15:04:03.823Z,41.35
2016-01-18T15:05:03.857Z,41.25
2016-01-18T15:06:03.891Z,41.73
2016-01-18T15:07:03.925Z,40.67
2016-01-18T15:08:03.975Z,40.58
2016-01-18T15:09:04.008Z,40.12
2016-01-18T15:10:04.058Z,39.85
2016-01-18T15:11:04.077Z,39.18
2016-01-18T15:12:04.126Z,38.89
2016-01-18T15:13:04.160Z,38.43
2016-01-18T15:14:04.224Z,38.34
2016-01-18T15:15:04.244Z,38.07
2016-01-18T15:16:04.277Z,37.77
2016-01-18T15:17:04.327Z,37.3
2016-01-18T15:18:04.376Z,37.12
2016-01-18T15:19:04.410Z,36.74
2016-01-18T15:20:04.444Z,36.54
2016-01-18T15:21:04.479Z,36.54
2016-01-18T15:22:04.528Z,36.47
2016-01-18T15:23:04.562Z,36.35
2016-01-18T15:24:04.595Z,36.27
2016-01-18T15:25:04.645Z,35.99
2016-01-18T15:26:04.695Z,36.08
2016-01-18T15:27:04.728Z,36.08
2016-01-18T15:28:04.762Z,36.18
2016-01-18T15:29:04.812Z,36.18
2016-01-18T15:30:04.846Z,36.37
2016-01-18T15:31:04.896Z,36.18
2016-01-18T15:32:04.930Z,35.89
2016-01-18T15:33:05.261Z,35.89
2016-01-18T15:34:05.044Z,35.91
2016-01-18T15:35:05.047Z,36.29
2016-01-18T15:36:05.097Z,36.27
2016-01-18T15:37:05.115Z,35.99
2016-01-18T15:38:05.165Z,36.47
2016-01-18T15:39:05.214Z,36.76
2016-01-18T15:40:05.247Z,36.66
2016-01-18T15:41:10.813Z,36.85
2016-01-18T15:42:05.363Z,36.95
2016-01-18T15:43:05.381Z,37.24
2016-01-18T15:44:05.416Z,38.1
2016-01-18T15:45:05.465Z,38.39
2016-01-18T15:46:05.483Z,38.39
2016-01-18T15:47:05.737Z,38.59
2016-01-18T15:48:05.708Z,38.87
2016-01-18T15:49:05.617Z,39.16
2016-01-18T15:50:05.667Z,39.26
2016-01-18T15:51:05.732Z,39.06
2016-01-18T15:52:05.735Z,39.14
2016-01-18T15:53:05.784Z,38.95
2016-01-18T15:54:05.818Z,39.43
2016-01-18T15:55:05.868Z,39.62
2016-01-18T15:56:05.902Z,40.01
2016-01-18T15:57:05.966Z,39.62
2016-01-18T15:58:05.985Z,40.3
2016-01-18T15:59:06.034Z,40.68
2016-01-18T16:00:06.069Z,40.49
2016-01-18T16:01:06.102Z,40.49
2016-01-18T16:02:06.137Z,40.88
2016-01-18T16:03:06.185Z,40.78
2016-01-18T16:04:06.220Z,40.68
2016-01-18T16:05:06.270Z,41.05
2016-01-18T16:06:06.304Z,40.39
2016-01-18T16:07:06.353Z,40.78
2016-01-18T16:08:06.387Z,40.68
2016-01-18T16:09:06.437Z,40.78
2016-01-18T16:10:06.627Z,41.14
2016-01-18T16:11:06.518Z,40.76
2016-01-18T16:12:06.567Z,40.85
2016-01-18T16:13:06.585Z,40.85
2016-01-18T16:14:06.634Z,40.85
2016-01-18T16:15:06.670Z,40.85
2016-01-18T16:16:06.718Z,41.14
2016-01-18T16:17:06.753Z,40.95
2016-01-18T16:18:06.802Z,41.33
2016-01-18T16:19:06.837Z,41.24
2016-01-18T16:20:06.869Z,41.43
2016-01-18T16:21:06.950Z,41.62
2016-01-18T16:22:06.953Z,41.33
2016-01-18T16:23:07.003Z,41.53
2016-01-18T16:24:07.036Z,41.53
2016-01-18T16:25:07.102Z,41.6
2016-01-18T16:26:07.120Z,41.33
2016-01-18T16:27:07.155Z,41.41
2016-01-18T16:28:07.204Z,41.6
2016-01-18T16:29:10.366Z,41.31
2016-01-18T16:30:07.397Z,41.6
2016-01-18T16:31:07.321Z,41.31
2016-01-18T16:32:07.372Z,41.5
2016-01-18T16:33:07.405Z,41.89
2016-01-18T16:34:07.439Z,41.79
2016-01-18T16:35:07.488Z,41.99
2016-01-18T16:36:07.929Z,42.18
2016-01-18T16:37:07.572Z,42.08
2016-01-18T16:38:07.607Z,41.79
2016-01-18T16:39:07.640Z,42.08
2016-01-18T16:40:07.689Z,42.66
2016-01-18T16:41:07.724Z,42.66
2016-01-18T16:42:07.773Z,42.37
2016-01-18T16:43:07.807Z,42.08
2016-01-18T16:44:07.857Z,42.08
2016-01-18T16:45:07.890Z,41.89
2016-01-18T16:46:07.924Z,42.18
2016-01-18T16:47:07.973Z,42.08
2016-01-18T16:48:08.008Z,42.56
2016-01-18T16:49:08.057Z,42.76
2016-01-18T16:50:08.092Z,42.66
2016-01-18T16:51:08.141Z,42.47
2016-01-18T16:52:08.175Z,42.44
2016-01-18T16:53:08.208Z,42.35
2016-01-18T16:54:08.242Z,42.76
2016-01-18T16:55:08.292Z,42.37
2016-01-18T16:56:08.326Z,42.35
2016-01-18T16:57:08.375Z,42.54
2016-01-18T16:58:08.410Z,42.47
2016-01-18T16:59:13.194Z,42.35
2016-01-18T17:00:08.493Z,42.44
2016-01-18T17:01:08.527Z,42.37
2016-01-18T17:02:08.577Z,42.47
2016-01-18T17:03:08.783Z,42.37
2016-01-18T17:04:08.677Z,42.66
2016-01-18T17:05:08.679Z,42.66
2016-01-18T17:06:08.728Z,42.76
2016-01-18T17:07:08.764Z,42.56
2016-01-18T17:08:08.797Z,42.76
2016-01-18T17:09:08.846Z,42.54
2016-01-18T17:10:08.896Z,42.54
2016-01-18T17:11:08.930Z,42.66
2016-01-18T17:12:08.964Z,42.08
2016-01-18T17:13:09.013Z,42.18
2016-01-18T17:14:09.047Z,41.89
2016-01-18T17:15:09.082Z,41.79
2016-01-18T17:16:09.131Z,41.5
2016-01-18T17:17:09.190Z,41.5
2016-01-18T17:18:09.223Z,41.6
2016-01-18T17:19:09.243Z,41.5
2016-01-18T17:20:09.307Z,41.5
2016-01-18T17:21:09.326Z,41.5
2016-01-18T17:22:09.359Z,41.6
2016-01-18T17:23:09.410Z,41.6
2016-01-18T17:24:09.709Z,41.41
2016-01-18T17:25:09.493Z,41.5
2016-01-18T17:26:09.543Z,41.5
2016-01-18T17:27:09.576Z,41.5
2016-01-18T17:28:09.611Z,40.64
2016-01-18T17:29:09.660Z,41.05
2016-01-18T17:30:09.694Z,40.76
2016-01-18T17:31:09.744Z,40.85
2016-01-18T17:32:09.793Z,40.85
2016-01-18T17:33:09.984Z,40.66
2016-01-18T17:34:09.861Z,40.76
2016-01-18T17:35:09.894Z,40.76
2016-01-18T17:36:09.944Z,40.85
2016-01-18T17:37:09.978Z,40.28
2016-01-18T17:38:10.028Z,40.47
2016-01-18T17:39:10.063Z,40.68
2016-01-18T17:40:10.096Z,40.49
2016-01-18T17:41:10.145Z,40.49
2016-01-18T17:42:10.195Z,40.78
2016-01-18T17:43:10.230Z,40.66
2016-01-18T17:44:10.263Z,40.85
2016-01-18T17:45:10.296Z,40.85
2016-01-18T17:46:10.362Z,40.37
2016-01-18T17:47:10.396Z,40.68
2016-01-18T17:48:10.430Z,40.88
2016-01-18T17:49:10.479Z,40.85
2016-01-18T17:50:10.504Z,40.68
2016-01-18T17:51:10.545Z,40.76
2016-01-18T17:52:10.570Z,40.88
2016-01-18T17:53:10.610Z,40.97
2016-01-18T17:54:10.620Z,41.14
2016-01-18T17:55:10.683Z,40.78
2016-01-18T17:56:10.713Z,40.78
2016-01-18T17:57:10.743Z,41.24
2016-01-18T17:58:10.790Z,41.62
2016-01-18T17:59:10.805Z,41.33
2016-01-18T18:00:10.852Z,41.62
2016-01-18T18:01:10.900Z,41.43
2016-01-18T18:02:10.935Z,41.33
2016-01-18T18:03:10.998Z,41.53
2016-01-18T18:04:11.015Z,41.53
2016-01-18T18:05:11.064Z,41.43
2016-01-18T18:06:11.098Z,41.43
2016-01-18T18:07:11.131Z,41.53
2016-01-18T18:08:11.165Z,41.53
2016-01-18T18:09:11.230Z,41.33
2016-01-18T18:10:11.264Z,41.33
2016-01-18T18:11:11.298Z,41.72
2016-01-18T18:12:11.363Z,41.53
2016-01-18T18:13:11.380Z,41.53
2016-01-18T18:14:11.416Z,41.91
2016-01-18T18:15:11.465Z,41.82
2016-01-18T18:16:11.499Z,41.91
2016-01-18T18:17:11.532Z,41.91
2016-01-18T18:18:11.582Z,42.1
2016-01-18T18:19:11.632Z,42
2016-01-18T18:20:11.649Z,41.91
2016-01-18T18:21:11.700Z,42.1
2016-01-18T18:22:11.734Z,42.97
2016-01-18T18:23:11.798Z,42.58
2016-01-18T18:24:11.817Z,42.68
2016-01-18T18:25:11.867Z,42.68
2016-01-18T18:26:11.901Z,42.68
2016-01-18T18:27:11.950Z,42.58
2016-01-18T18:28:11.985Z,42.58
2016-01-18T18:29:12.018Z,42.2
2016-01-18T18:30:12.068Z,42.3
2016-01-18T18:31:11.414Z,42.3
2016-01-18T18:32:12.135Z,42.77
2016-01-18T18:33:12.185Z,42.68
2016-01-18T18:34:12.219Z,42.97
2016-01-18T18:35:12.269Z,42.87
2016-01-18T18:36:12.303Z,42.87
2016-01-18T18:37:12.352Z,42.87
2016-01-18T18:38:12.386Z,42.87
2016-01-18T18:39:12.435Z,43.07
2016-01-18T18:40:12.470Z,42.85
2016-01-18T18:41:12.519Z,42.97
2016-01-18T18:42:12.553Z,43.07
2016-01-18T18:43:12.602Z,42.49
2016-01-18T18:44:12.636Z,42.87
2016-01-18T18:45:12.671Z,42.58
2016-01-18T18:46:12.704Z,43.07
2016-01-18T18:47:12.755Z,43.07
2016-01-18T18:48:12.788Z,42.97
2016-01-18T18:49:12.837Z,43.14
2016-01-18T18:50:12.887Z,42.97
2016-01-18T18:51:12.905Z,42.94
2016-01-18T18:52:12.955Z,42.94
2016-01-18T18:53:13.020Z,42.56
2016-01-18T18:54:13.038Z,43.04
2016-01-18T18:55:13.073Z,43.04
2016-01-18T18:56:13.107Z,42.87
2016-01-18T18:57:13.156Z,42.77
2016-01-18T18:58:13.189Z,42.58
2016-01-18T18:59:13.240Z,42.87